Portada
METAR-TAF:

METAR-TAF

Aeroports :

Aeroport Internacional de Palanga

Palanga, Lituània

latitud: 55-55-12N, longitud: 021-03E, altitud: 10 m

Observació

L'informe es va fer fa 30 minuts, a les 09:20 UTC
Vent 10 kt del Sud, variant entre Sud/Sud-Est i Sud-Oest
Temperatura 30°C
Humitat 38%
Pressió 1018 hPa
Visibilitat 10 km o més
sense núvols per sota de 1500 mi sense presència de cumulonimbus.

METAR: EYPA 190920Z 18010KT 150V220 CAVOK 30/14 Q1018

Hora: 12:50 (09:50 UTC)

Pronòstic

L'informe es va fer fa 4 hores i 50 minuts, a les 05:00 UTC
Pronòstic vàlid del 19 a les 06 UTC al 20 a les 06 UTC
Vent 10 kt del Sud/Sud-Est
Visibilitat 10 km o més
sense núvols per sota de 1500 mi sense presència de cumulonimbus.

TAF: EYPA 190500Z 1906/2006 16010KT CAVOK

Observacions i pronòstics meteorològics de més de 4000 aeroports (METAR i TAF).

Les estacions disponibles són els punts grocs i vermells al mapa.

Posi el ratolí al punt desitjat per veure el nom de l'estació.

Feu clic per veure les observacions i els pronòstics meteorològics.

Per canviar el mapa: feu clic els botons verds amb una creu de color negre per apropar; al botó verd amb un guió per allunyar la imatge; o en les fletxes verdes per a mapes adjacents.


METAR-TAF: